sensor_id;sensor_type;location;lat;lon;timestamp;temperature;humidity
60723;DHT22;46574;52.818;6.516;2022-11-21T00:01:59;2.10;99.90
60723;DHT22;46574;52.818;6.516;2022-11-21T00:04:25;2.10;99.90
60723;DHT22;46574;52.818;6.516;2022-11-21T00:06:50;2.10;99.90
60723;DHT22;46574;52.818;6.516;2022-11-21T00:09:17;2.00;99.90
60723;DHT22;46574;52.818;6.516;2022-11-21T00:11:42;2.10;99.90
60723;DHT22;46574;52.818;6.516;2022-11-21T00:14:08;2.10;99.90
60723;DHT22;46574;52.818;6.516;2022-11-21T00:16:33;2.10;99.90
60723;DHT22;46574;52.818;6.516;2022-11-21T00:18:59;2.20;99.90
60723;DHT22;46574;52.818;6.516;2022-11-21T00:21:25;2.10;99.90
60723;DHT22;46574;52.818;6.516;2022-11-21T00:23:51;2.10;99.90
60723;DHT22;46574;52.818;6.516;2022-11-21T00:26:17;2.20;99.90
60723;DHT22;46574;52.818;6.516;2022-11-21T00:28:43;2.20;99.90
60723;DHT22;46574;52.818;6.516;2022-11-21T00:31:18;2.20;99.90
60723;DHT22;46574;52.818;6.516;2022-11-21T00:33:43;2.20;99.90
60723;DHT22;46574;52.818;6.516;2022-11-21T00:36:09;2.20;99.90
60723;DHT22;46574;52.818;6.516;2022-11-21T00:38:36;2.20;99.90
60723;DHT22;46574;52.818;6.516;2022-11-21T00:41:02;2.20;99.90
60723;DHT22;46574;52.818;6.516;2022-11-21T00:43:28;2.20;99.90
60723;DHT22;46574;52.818;6.516;2022-11-21T00:45:53;2.10;99.90
60723;DHT22;46574;52.818;6.516;2022-11-21T00:48:19;2.10;99.90
60723;DHT22;46574;52.818;6.516;2022-11-21T00:50:47;2.10;99.90
60723;DHT22;46574;52.818;6.516;2022-11-21T00:53:13;2.10;99.90
60723;DHT22;46574;52.818;6.516;2022-11-21T00:55:40;2.10;99.90
60723;DHT22;46574;52.818;6.516;2022-11-21T00:58:06;2.10;99.90
60723;DHT22;46574;52.818;6.516;2022-11-21T01:00:31;2.10;99.90
60723;DHT22;46574;52.818;6.516;2022-11-21T01:02:57;2.10;99.90
60723;DHT22;46574;52.818;6.516;2022-11-21T01:05:22;2.00;99.90
60723;DHT22;46574;52.818;6.516;2022-11-21T01:07:48;2.10;99.90
60723;DHT22;46574;52.818;6.516;2022-11-21T01:10:14;2.10;99.90
60723;DHT22;46574;52.818;6.516;2022-11-21T01:12:39;2.00;99.90
60723;DHT22;46574;52.818;6.516;2022-11-21T01:15:05;2.10;99.90
60723;DHT22;46574;52.818;6.516;2022-11-21T01:17:32;2.10;99.90
60723;DHT22;46574;52.818;6.516;2022-11-21T01:19:58;2.10;99.90
60723;DHT22;46574;52.818;6.516;2022-11-21T01:22:23;2.10;99.90
60723;DHT22;46574;52.818;6.516;2022-11-21T01:24:49;2.10;99.90
60723;DHT22;46574;52.818;6.516;2022-11-21T01:27:15;2.10;99.90
60723;DHT22;46574;52.818;6.516;2022-11-21T01:29:40;2.10;99.90
60723;DHT22;46574;52.818;6.516;2022-11-21T01:32:06;2.10;99.90
60723;DHT22;46574;52.818;6.516;2022-11-21T01:34:32;2.10;99.90
60723;DHT22;46574;52.818;6.516;2022-11-21T01:36:57;2.10;99.90
60723;DHT22;46574;52.818;6.516;2022-11-21T01:39:23;2.10;99.90
60723;DHT22;46574;52.818;6.516;2022-11-21T01:41:49;2.10;99.90
60723;DHT22;46574;52.818;6.516;2022-11-21T01:44:26;2.10;99.90
60723;DHT22;46574;52.818;6.516;2022-11-21T01:46:52;2.10;99.90
60723;DHT22;46574;52.818;6.516;2022-11-21T01:49:28;2.10;99.90
60723;DHT22;46574;52.818;6.516;2022-11-21T01:52:00;2.10;99.90
60723;DHT22;46574;52.818;6.516;2022-11-21T01:57:26;2.00;99.90
60723;DHT22;46574;52.818;6.516;2022-11-21T02:02:41;2.10;99.90
60723;DHT22;46574;52.818;6.516;2022-11-21T02:05:11;2.10;99.90
60723;DHT22;46574;52.818;6.516;2022-11-21T02:07:40;2.10;99.90
60723;DHT22;46574;52.818;6.516;2022-11-21T02:10:08;2.10;99.90
60723;DHT22;46574;52.818;6.516;2022-11-21T02:12:48;2.10;99.90
60723;DHT22;46574;52.818;6.516;2022-11-21T02:15:15;2.10;99.90
60723;DHT22;46574;52.818;6.516;2022-11-21T02:17:41;2.10;99.90
60723;DHT22;46574;52.818;6.516;2022-11-21T02:20:09;2.10;99.90
60723;DHT22;46574;52.818;6.516;2022-11-21T02:25:40;2.10;99.90
60723;DHT22;46574;52.818;6.516;2022-11-21T02:28:18;2.10;99.90
60723;DHT22;46574;52.818;6.516;2022-11-21T02:30:45;2.10;99.90
60723;DHT22;46574;52.818;6.516;2022-11-21T02:33:12;2.10;99.90
60723;DHT22;46574;52.818;6.516;2022-11-21T02:35:38;2.10;99.90
60723;DHT22;46574;52.818;6.516;2022-11-21T02:38:17;2.10;99.90
60723;DHT22;46574;52.818;6.516;2022-11-21T02:41:08;2.10;99.90
60723;DHT22;46574;52.818;6.516;2022-11-21T02:43:42;2.20;99.90
60723;DHT22;46574;52.818;6.516;2022-11-21T02:46:09;2.20;99.90
60723;DHT22;46574;52.818;6.516;2022-11-21T02:48:36;2.20;99.90
60723;DHT22;46574;52.818;6.516;2022-11-21T02:51:02;2.10;99.90
60723;DHT22;46574;52.818;6.516;2022-11-21T02:53:28;2.10;99.90
60723;DHT22;46574;52.818;6.516;2022-11-21T02:55:54;2.10;99.90
60723;DHT22;46574;52.818;6.516;2022-11-21T02:58:19;2.10;99.90
60723;DHT22;46574;52.818;6.516;2022-11-21T03:00:45;2.10;99.90
60723;DHT22;46574;52.818;6.516;2022-11-21T03:03:11;2.10;99.90
60723;DHT22;46574;52.818;6.516;2022-11-21T03:05:38;2.00;99.90
60723;DHT22;46574;52.818;6.516;2022-11-21T03:08:04;2.00;99.90
60723;DHT22;46574;52.818;6.516;2022-11-21T03:10:30;2.00;99.90
60723;DHT22;46574;52.818;6.516;2022-11-21T03:12:56;2.00;99.90
60723;DHT22;46574;52.818;6.516;2022-11-21T03:15:26;1.90;99.90
60723;DHT22;46574;52.818;6.516;2022-11-21T03:17:53;1.80;99.90
60723;DHT22;46574;52.818;6.516;2022-11-21T03:20:19;1.80;99.90
60723;DHT22;46574;52.818;6.516;2022-11-21T03:22:44;1.70;99.90
60723;DHT22;46574;52.818;6.516;2022-11-21T03:25:10;1.70;99.90
60723;DHT22;46574;52.818;6.516;2022-11-21T03:27:35;1.70;99.90
60723;DHT22;46574;52.818;6.516;2022-11-21T03:30:01;1.70;99.90
60723;DHT22;46574;52.818;6.516;2022-11-21T03:32:26;1.60;99.90
60723;DHT22;46574;52.818;6.516;2022-11-21T03:34:52;1.60;99.90
60723;DHT22;46574;52.818;6.516;2022-11-21T03:37:18;1.50;99.90
60723;DHT22;46574;52.818;6.516;2022-11-21T03:39:43;1.50;99.90
60723;DHT22;46574;52.818;6.516;2022-11-21T03:42:09;1.40;99.90
60723;DHT22;46574;52.818;6.516;2022-11-21T03:44:35;1.40;99.90
60723;DHT22;46574;52.818;6.516;2022-11-21T03:47:00;1.30;99.90
60723;DHT22;46574;52.818;6.516;2022-11-21T03:49:26;1.20;99.90
60723;DHT22;46574;52.818;6.516;2022-11-21T03:51:51;1.20;99.90
60723;DHT22;46574;52.818;6.516;2022-11-21T03:54:17;1.10;99.90
60723;DHT22;46574;52.818;6.516;2022-11-21T03:56:43;1.10;99.90
60723;DHT22;46574;52.818;6.516;2022-11-21T03:59:08;1.10;99.90
60723;DHT22;46574;52.818;6.516;2022-11-21T04:01:34;1.00;99.90
60723;DHT22;46574;52.818;6.516;2022-11-21T04:03:59;1.00;99.90
60723;DHT22;46574;52.818;6.516;2022-11-21T04:06:25;0.90;99.90
60723;DHT22;46574;52.818;6.516;2022-11-21T04:08:51;0.90;99.90
60723;DHT22;46574;52.818;6.516;2022-11-21T04:11:16;0.90;99.90
60723;DHT22;46574;52.818;6.516;2022-11-21T04:13:42;0.80;99.90
60723;DHT22;46574;52.818;6.516;2022-11-21T04:16:08;0.80;99.90
60723;DHT22;46574;52.818;6.516;2022-11-21T04:18:34;0.80;99.90
60723;DHT22;46574;52.818;6.516;2022-11-21T04:21:02;0.70;99.90
60723;DHT22;46574;52.818;6.516;2022-11-21T04:23:28;0.70;99.90
60723;DHT22;46574;52.818;6.516;2022-11-21T04:25:54;0.60;99.90
60723;DHT22;46574;52.818;6.516;2022-11-21T04:28:20;0.70;99.90
60723;DHT22;46574;52.818;6.516;2022-11-21T04:30:46;0.60;99.90
60723;DHT22;46574;52.818;6.516;2022-11-21T04:33:13;0.60;99.90
60723;DHT22;46574;52.818;6.516;2022-11-21T04:35:39;0.60;99.90
60723;DHT22;46574;52.818;6.516;2022-11-21T04:38:05;0.60;99.90
60723;DHT22;46574;52.818;6.516;2022-11-21T04:40:30;0.50;99.90
60723;DHT22;46574;52.818;6.516;2022-11-21T04:42:56;0.60;99.90
60723;DHT22;46574;52.818;6.516;2022-11-21T04:45:22;0.60;99.90
60723;DHT22;46574;52.818;6.516;2022-11-21T04:47:47;0.60;99.90
60723;DHT22;46574;52.818;6.516;2022-11-21T04:50:16;0.50;99.90
60723;DHT22;46574;52.818;6.516;2022-11-21T04:52:42;0.50;99.90
60723;DHT22;46574;52.818;6.516;2022-11-21T04:55:13;0.50;99.90
60723;DHT22;46574;52.818;6.516;2022-11-21T04:57:38;0.50;99.90
60723;DHT22;46574;52.818;6.516;2022-11-21T05:00:04;0.50;99.90
60723;DHT22;46574;52.818;6.516;2022-11-21T05:02:31;0.40;99.90
60723;DHT22;46574;52.818;6.516;2022-11-21T05:04:57;0.40;99.90
60723;DHT22;46574;52.818;6.516;2022-11-21T05:07:23;0.40;99.90
60723;DHT22;46574;52.818;6.516;2022-11-21T05:09:48;0.40;99.90
60723;DHT22;46574;52.818;6.516;2022-11-21T05:12:14;0.40;99.90
60723;DHT22;46574;52.818;6.516;2022-11-21T05:14:58;0.40;99.90
60723;DHT22;46574;52.818;6.516;2022-11-21T05:17:24;0.40;99.90
60723;DHT22;46574;52.818;6.516;2022-11-21T05:19:51;0.40;99.90
60723;DHT22;46574;52.818;6.516;2022-11-21T05:22:17;0.40;99.90
60723;DHT22;46574;52.818;6.516;2022-11-21T05:24:42;0.30;99.90
60723;DHT22;46574;52.818;6.516;2022-11-21T05:27:08;0.40;99.90
60723;DHT22;46574;52.818;6.516;2022-11-21T05:29:34;0.30;99.90
60723;DHT22;46574;52.818;6.516;2022-11-21T05:32:00;0.30;99.90
60723;DHT22;46574;52.818;6.516;2022-11-21T05:34:26;0.30;99.90
60723;DHT22;46574;52.818;6.516;2022-11-21T05:36:54;0.30;99.90
60723;DHT22;46574;52.818;6.516;2022-11-21T05:39:23;0.20;99.90
60723;DHT22;46574;52.818;6.516;2022-11-21T05:41:49;0.20;99.90
60723;DHT22;46574;52.818;6.516;2022-11-21T05:44:15;0.20;99.90
60723;DHT22;46574;52.818;6.516;2022-11-21T05:46:40;0.20;99.90
60723;DHT22;46574;52.818;6.516;2022-11-21T05:49:06;0.20;99.90
60723;DHT22;46574;52.818;6.516;2022-11-21T05:51:32;0.20;99.90
60723;DHT22;46574;52.818;6.516;2022-11-21T05:53:59;0.20;99.90
60723;DHT22;46574;52.818;6.516;2022-11-21T05:56:24;0.20;99.90
60723;DHT22;46574;52.818;6.516;2022-11-21T05:58:50;0.20;99.90
60723;DHT22;46574;52.818;6.516;2022-11-21T06:01:16;0.20;99.90
60723;DHT22;46574;52.818;6.516;2022-11-21T06:04:02;0.20;99.90
60723;DHT22;46574;52.818;6.516;2022-11-21T06:06:27;0.30;99.90
60723;DHT22;46574;52.818;6.516;2022-11-21T06:08:53;0.20;99.90
60723;DHT22;46574;52.818;6.516;2022-11-21T06:11:18;0.30;99.90
60723;DHT22;46574;52.818;6.516;2022-11-21T06:13:44;0.20;99.90
60723;DHT22;46574;52.818;6.516;2022-11-21T06:16:17;0.20;99.90
60723;DHT22;46574;52.818;6.516;2022-11-21T06:18:46;0.30;99.90
60723;DHT22;46574;52.818;6.516;2022-11-21T06:21:20;0.30;99.90
60723;DHT22;46574;52.818;6.516;2022-11-21T06:23:48;0.30;99.90
60723;DHT22;46574;52.818;6.516;2022-11-21T06:26:16;0.30;99.90
60723;DHT22;46574;52.818;6.516;2022-11-21T06:28:42;0.30;99.90
60723;DHT22;46574;52.818;6.516;2022-11-21T06:31:11;0.30;99.90
60723;DHT22;46574;52.818;6.516;2022-11-21T06:33:37;0.30;99.90
60723;DHT22;46574;52.818;6.516;2022-11-21T06:36:08;0.30;99.90
60723;DHT22;46574;52.818;6.516;2022-11-21T06:38:34;0.30;99.90
60723;DHT22;46574;52.818;6.516;2022-11-21T06:41:09;0.30;99.90
60723;DHT22;46574;52.818;6.516;2022-11-21T06:43:35;0.30;99.90
60723;DHT22;46574;52.818;6.516;2022-11-21T06:46:00;0.30;99.90
60723;DHT22;46574;52.818;6.516;2022-11-21T06:48:29;0.30;99.90
60723;DHT22;46574;52.818;6.516;2022-11-21T06:50:55;0.30;99.90
60723;DHT22;46574;52.818;6.516;2022-11-21T06:53:20;0.30;99.90
60723;DHT22;46574;52.818;6.516;2022-11-21T06:55:46;0.20;99.90
60723;DHT22;46574;52.818;6.516;2022-11-21T06:58:11;0.30;99.90
60723;DHT22;46574;52.818;6.516;2022-11-21T07:00:37;0.30;99.90
60723;DHT22;46574;52.818;6.516;2022-11-21T07:03:03;0.30;99.90
60723;DHT22;46574;52.818;6.516;2022-11-21T07:05:29;0.40;99.90
60723;DHT22;46574;52.818;6.516;2022-11-21T07:08:02;0.40;99.90
60723;DHT22;46574;52.818;6.516;2022-11-21T07:10:29;0.40;99.90
60723;DHT22;46574;52.818;6.516;2022-11-21T07:12:59;0.40;99.90
60723;DHT22;46574;52.818;6.516;2022-11-21T07:15:44;0.50;99.90
60723;DHT22;46574;52.818;6.516;2022-11-21T07:18:10;0.40;99.90
60723;DHT22;46574;52.818;6.516;2022-11-21T07:20:37;0.50;99.90
60723;DHT22;46574;52.818;6.516;2022-11-21T07:23:02;0.50;99.90
60723;DHT22;46574;52.818;6.516;2022-11-21T07:25:28;0.50;99.90
60723;DHT22;46574;52.818;6.516;2022-11-21T07:27:57;0.50;99.90
60723;DHT22;46574;52.818;6.516;2022-11-21T07:30:23;0.50;99.90
60723;DHT22;46574;52.818;6.516;2022-11-21T07:32:54;0.50;99.90
60723;DHT22;46574;52.818;6.516;2022-11-21T07:35:20;0.50;99.90
60723;DHT22;46574;52.818;6.516;2022-11-21T07:37:46;0.50;99.90
60723;DHT22;46574;52.818;6.516;2022-11-21T07:40:12;0.50;99.90
60723;DHT22;46574;52.818;6.516;2022-11-21T07:42:37;0.50;99.90
60723;DHT22;46574;52.818;6.516;2022-11-21T07:45:03;0.60;99.90
60723;DHT22;46574;52.818;6.516;2022-11-21T07:47:29;0.60;99.90
60723;DHT22;46574;52.818;6.516;2022-11-21T07:49:55;0.60;99.90
60723;DHT22;46574;52.818;6.516;2022-11-21T07:52:20;0.60;99.90
60723;DHT22;46574;52.818;6.516;2022-11-21T07:54:46;0.60;99.90
60723;DHT22;46574;52.818;6.516;2022-11-21T07:57:11;0.70;99.90
60723;DHT22;46574;52.818;6.516;2022-11-21T07:59:37;0.70;99.90
60723;DHT22;46574;52.818;6.516;2022-11-21T08:02:03;0.70;99.90
60723;DHT22;46574;52.818;6.516;2022-11-21T08:04:28;0.80;99.90
60723;DHT22;46574;52.818;6.516;2022-11-21T08:06:54;0.70;99.90
60723;DHT22;46574;52.818;6.516;2022-11-21T08:09:20;0.80;99.90
60723;DHT22;46574;52.818;6.516;2022-11-21T08:11:45;0.80;99.90
60723;DHT22;46574;52.818;6.516;2022-11-21T08:14:12;0.80;99.90
60723;DHT22;46574;52.818;6.516;2022-11-21T08:16:38;0.80;99.90
60723;DHT22;46574;52.818;6.516;2022-11-21T08:19:03;0.90;99.90
60723;DHT22;46574;52.818;6.516;2022-11-21T08:21:30;0.90;99.90
60723;DHT22;46574;52.818;6.516;2022-11-21T08:23:55;0.90;99.90
60723;DHT22;46574;52.818;6.516;2022-11-21T08:26:21;1.00;99.90
60723;DHT22;46574;52.818;6.516;2022-11-21T08:28:47;1.00;99.90
60723;DHT22;46574;52.818;6.516;2022-11-21T08:31:12;1.00;99.90
60723;DHT22;46574;52.818;6.516;2022-11-21T08:33:38;1.00;99.90
60723;DHT22;46574;52.818;6.516;2022-11-21T08:36:05;0.90;99.90
60723;DHT22;46574;52.818;6.516;2022-11-21T08:38:31;1.00;99.90
60723;DHT22;46574;52.818;6.516;2022-11-21T08:40:57;1.00;99.90
60723;DHT22;46574;52.818;6.516;2022-11-21T08:43:41;1.10;99.90
60723;DHT22;46574;52.818;6.516;2022-11-21T08:46:07;1.10;99.90
60723;DHT22;46574;52.818;6.516;2022-11-21T08:48:33;1.10;99.90
60723;DHT22;46574;52.818;6.516;2022-11-21T08:50:58;1.20;99.90
60723;DHT22;46574;52.818;6.516;2022-11-21T08:53:24;1.30;99.90
60723;DHT22;46574;52.818;6.516;2022-11-21T08:55:50;1.30;99.90
60723;DHT22;46574;52.818;6.516;2022-11-21T08:58:16;1.40;99.90
60723;DHT22;46574;52.818;6.516;2022-11-21T09:00:41;1.50;99.90
60723;DHT22;46574;52.818;6.516;2022-11-21T09:03:07;1.60;99.90
60723;DHT22;46574;52.818;6.516;2022-11-21T09:05:33;1.60;99.90
60723;DHT22;46574;52.818;6.516;2022-11-21T09:07:58;1.70;99.90
60723;DHT22;46574;52.818;6.516;2022-11-21T09:10:27;1.70;99.90
60723;DHT22;46574;52.818;6.516;2022-11-21T09:12:59;1.70;99.90
60723;DHT22;46574;52.818;6.516;2022-11-21T09:15:24;1.70;99.90
60723;DHT22;46574;52.818;6.516;2022-11-21T09:18:12;1.70;99.90
60723;DHT22;46574;52.818;6.516;2022-11-21T09:20:39;1.60;99.90
60723;DHT22;46574;52.818;6.516;2022-11-21T09:23:07;1.60;99.90
60723;DHT22;46574;52.818;6.516;2022-11-21T09:25:33;1.50;99.90
60723;DHT22;46574;52.818;6.516;2022-11-21T09:28:03;1.50;99.90
60723;DHT22;46574;52.818;6.516;2022-11-21T09:30:29;1.60;99.90
60723;DHT22;46574;52.818;6.516;2022-11-21T09:32:59;1.60;99.90
60723;DHT22;46574;52.818;6.516;2022-11-21T09:35:26;1.60;99.90
60723;DHT22;46574;52.818;6.516;2022-11-21T09:37:51;1.60;99.90
60723;DHT22;46574;52.818;6.516;2022-11-21T09:40:17;1.60;99.90
60723;DHT22;46574;52.818;6.516;2022-11-21T09:42:51;1.60;99.90
60723;DHT22;46574;52.818;6.516;2022-11-21T09:48:32;1.70;99.90
60723;DHT22;46574;52.818;6.516;2022-11-21T09:51:03;1.80;99.90
60723;DHT22;46574;52.818;6.516;2022-11-21T09:53:36;1.80;99.90
60723;DHT22;46574;52.818;6.516;2022-11-21T09:56:13;1.80;99.90
60723;DHT22;46574;52.818;6.516;2022-11-21T10:01:28;1.90;99.90
60723;DHT22;46574;52.818;6.516;2022-11-21T10:03:55;2.00;99.90
60723;DHT22;46574;52.818;6.516;2022-11-21T10:06:28;2.00;99.90
60723;DHT22;46574;52.818;6.516;2022-11-21T10:09:08;2.10;99.90
60723;DHT22;46574;52.818;6.516;2022-11-21T10:11:56;2.20;99.90
60723;DHT22;46574;52.818;6.516;2022-11-21T10:17:34;2.20;99.90
60723;DHT22;46574;52.818;6.516;2022-11-21T10:20:26;2.30;99.90
60723;DHT22;46574;52.818;6.516;2022-11-21T10:25:50;2.30;99.90
60723;DHT22;46574;52.818;6.516;2022-11-21T10:28:21;2.40;99.90
60723;DHT22;46574;52.818;6.516;2022-11-21T10:30:53;2.40;99.90
60723;DHT22;46574;52.818;6.516;2022-11-21T10:33:40;2.40;99.90
60723;DHT22;46574;52.818;6.516;2022-11-21T10:38:42;2.50;99.90
60723;DHT22;46574;52.818;6.516;2022-11-21T10:44:23;2.60;99.90
60723;DHT22;46574;52.818;6.516;2022-11-21T10:49:38;2.70;99.90
60723;DHT22;46574;52.818;6.516;2022-11-21T10:52:10;2.70;99.90
60723;DHT22;46574;52.818;6.516;2022-11-21T10:57:28;2.80;99.90
60723;DHT22;46574;52.818;6.516;2022-11-21T11:00:12;2.90;99.90
60723;DHT22;46574;52.818;6.516;2022-11-21T11:02:40;3.00;99.90
60723;DHT22;46574;52.818;6.516;2022-11-21T11:07:41;3.30;99.90
60723;DHT22;46574;52.818;6.516;2022-11-21T11:10:22;3.50;99.90
60723;DHT22;46574;52.818;6.516;2022-11-21T11:12:49;3.70;99.90
60723;DHT22;46574;52.818;6.516;2022-11-21T11:15:35;3.90;99.90
60723;DHT22;46574;52.818;6.516;2022-11-21T11:18:04;4.00;99.90
60723;DHT22;46574;52.818;6.516;2022-11-21T11:20:41;4.10;99.90
60723;DHT22;46574;52.818;6.516;2022-11-21T11:23:25;4.20;99.90
60723;DHT22;46574;52.818;6.516;2022-11-21T11:25:56;4.20;99.90
60723;DHT22;46574;52.818;6.516;2022-11-21T11:28:32;4.20;99.90
60723;DHT22;46574;52.818;6.516;2022-11-21T11:30:58;4.20;99.90
60723;DHT22;46574;52.818;6.516;2022-11-21T11:33:36;4.20;99.90
60723;DHT22;46574;52.818;6.516;2022-11-21T11:36:16;4.10;99.90
60723;DHT22;46574;52.818;6.516;2022-11-21T11:38:52;4.10;99.90
60723;DHT22;46574;52.818;6.516;2022-11-21T11:47:34;4.20;99.90
60723;DHT22;46574;52.818;6.516;2022-11-21T11:50:31;4.20;99.90
60723;DHT22;46574;52.818;6.516;2022-11-21T12:01:57;4.20;99.90
60723;DHT22;46574;52.818;6.516;2022-11-21T12:04:28;4.20;99.90
60723;DHT22;46574;52.818;6.516;2022-11-21T12:07:01;4.30;99.90
60723;DHT22;46574;52.818;6.516;2022-11-21T12:17:48;4.50;99.90
60723;DHT22;46574;52.818;6.516;2022-11-21T12:20:22;4.50;99.90
60723;DHT22;46574;52.818;6.516;2022-11-21T12:22:51;4.60;99.90
60723;DHT22;46574;52.818;6.516;2022-11-21T12:25:24;4.70;99.90
60723;DHT22;46574;52.818;6.516;2022-11-21T12:27:53;4.70;99.90
60723;DHT22;46574;52.818;6.516;2022-11-21T12:30:23;4.80;99.90
60723;DHT22;46574;52.818;6.516;2022-11-21T12:33:05;4.80;99.90
60723;DHT22;46574;52.818;6.516;2022-11-21T12:35:47;4.80;99.90
60723;DHT22;46574;52.818;6.516;2022-11-21T12:47:18;4.50;99.90
60723;DHT22;46574;52.818;6.516;2022-11-21T12:50:11;4.50;99.90
60723;DHT22;46574;52.818;6.516;2022-11-21T12:53:21;4.50;99.90
60723;DHT22;46574;52.818;6.516;2022-11-21T12:56:21;4.50;99.90
60723;DHT22;46574;52.818;6.516;2022-11-21T12:58:52;4.50;99.90
60723;DHT22;46574;52.818;6.516;2022-11-21T13:04:04;4.50;99.90
60723;DHT22;46574;52.818;6.516;2022-11-21T13:06:39;4.60;99.90
60723;DHT22;46574;52.818;6.516;2022-11-21T13:09:13;4.60;99.90
60723;DHT22;46574;52.818;6.516;2022-11-21T13:11:48;4.60;99.90
60723;DHT22;46574;52.818;6.516;2022-11-21T13:17:13;4.70;99.90
60723;DHT22;46574;52.818;6.516;2022-11-21T13:25:11;4.80;99.90
60723;DHT22;46574;52.818;6.516;2022-11-21T13:27:41;4.80;99.90
60723;DHT22;46574;52.818;6.516;2022-11-21T13:32:45;4.80;99.90
60723;DHT22;46574;52.818;6.516;2022-11-21T13:56:23;4.70;99.90
60723;DHT22;46574;52.818;6.516;2022-11-21T14:04:25;4.70;99.90
60723;DHT22;46574;52.818;6.516;2022-11-21T14:06:55;4.70;99.90
60723;DHT22;46574;52.818;6.516;2022-11-21T14:09:46;4.70;99.90
60723;DHT22;46574;52.818;6.516;2022-11-21T14:15:10;4.70;99.90
60723;DHT22;46574;52.818;6.516;2022-11-21T14:17:43;4.70;99.90
60723;DHT22;46574;52.818;6.516;2022-11-21T14:20:28;4.70;99.90
60723;DHT22;46574;52.818;6.516;2022-11-21T14:23:00;4.70;99.90
60723;DHT22;46574;52.818;6.516;2022-11-21T14:28:01;4.70;99.90
60723;DHT22;46574;52.818;6.516;2022-11-21T14:30:38;4.80;99.90
60723;DHT22;46574;52.818;6.516;2022-11-21T14:33:40;4.80;99.90
60723;DHT22;46574;52.818;6.516;2022-11-21T14:36:18;4.80;99.90
60723;DHT22;46574;52.818;6.516;2022-11-21T14:38:47;4.80;99.90
60723;DHT22;46574;52.818;6.516;2022-11-21T14:46:35;4.70;99.90
60723;DHT22;46574;52.818;6.516;2022-11-21T14:51:40;4.70;99.90
60723;DHT22;46574;52.818;6.516;2022-11-21T14:54:16;4.70;99.90
60723;DHT22;46574;52.818;6.516;2022-11-21T14:56:46;4.70;99.90
60723;DHT22;46574;52.818;6.516;2022-11-21T14:59:23;4.70;99.90
60723;DHT22;46574;52.818;6.516;2022-11-21T15:02:09;4.70;99.90
60723;DHT22;46574;52.818;6.516;2022-11-21T15:04:35;4.70;99.90
60723;DHT22;46574;52.818;6.516;2022-11-21T15:07:02;4.70;99.90
60723;DHT22;46574;52.818;6.516;2022-11-21T15:09:28;4.70;99.90
60723;DHT22;46574;52.818;6.516;2022-11-21T15:12:08;4.70;99.90
60723;DHT22;46574;52.818;6.516;2022-11-21T15:14:45;4.70;99.90
60723;DHT22;46574;52.818;6.516;2022-11-21T15:17:14;4.70;99.90
60723;DHT22;46574;52.818;6.516;2022-11-21T15:19:41;4.70;99.90
60723;DHT22;46574;52.818;6.516;2022-11-21T15:22:31;4.70;99.90
60723;DHT22;46574;52.818;6.516;2022-11-21T15:25:21;4.70;99.90
60723;DHT22;46574;52.818;6.516;2022-11-21T15:28:05;4.70;99.90
60723;DHT22;46574;52.818;6.516;2022-11-21T15:30:32;4.70;99.90
60723;DHT22;46574;52.818;6.516;2022-11-21T15:33:10;4.70;99.90
60723;DHT22;46574;52.818;6.516;2022-11-21T15:41:03;4.70;99.90
60723;DHT22;46574;52.818;6.516;2022-11-21T15:46:12;4.70;99.90
60723;DHT22;46574;52.818;6.516;2022-11-21T15:48:38;4.80;99.90
60723;DHT22;46574;52.818;6.516;2022-11-21T15:51:04;4.80;99.90
60723;DHT22;46574;52.818;6.516;2022-11-21T15:53:29;4.80;99.90
60723;DHT22;46574;52.818;6.516;2022-11-21T15:55:55;4.90;99.90
60723;DHT22;46574;52.818;6.516;2022-11-21T15:58:20;4.90;99.90
60723;DHT22;46574;52.818;6.516;2022-11-21T16:00:46;4.90;99.90
60723;DHT22;46574;52.818;6.516;2022-11-21T16:03:12;4.90;99.90
60723;DHT22;46574;52.818;6.516;2022-11-21T16:05:37;4.90;99.90
60723;DHT22;46574;52.818;6.516;2022-11-21T16:08:03;4.90;99.90
60723;DHT22;46574;52.818;6.516;2022-11-21T16:10:29;4.90;99.90
60723;DHT22;46574;52.818;6.516;2022-11-21T16:12:55;4.90;99.90
60723;DHT22;46574;52.818;6.516;2022-11-21T16:15:21;4.90;99.90
60723;DHT22;46574;52.818;6.516;2022-11-21T16:17:47;4.90;99.90
60723;DHT22;46574;52.818;6.516;2022-11-21T16:20:13;4.90;99.90
60723;DHT22;46574;52.818;6.516;2022-11-21T16:22:38;5.00;99.90
60723;DHT22;46574;52.818;6.516;2022-11-21T16:25:04;5.00;99.90
60723;DHT22;46574;52.818;6.516;2022-11-21T16:27:31;5.00;99.90
60723;DHT22;46574;52.818;6.516;2022-11-21T16:29:56;5.00;99.90
60723;DHT22;46574;52.818;6.516;2022-11-21T16:32:24;4.90;99.90
60723;DHT22;46574;52.818;6.516;2022-11-21T16:34:50;4.90;99.90
60723;DHT22;46574;52.818;6.516;2022-11-21T16:37:16;4.90;99.90
60723;DHT22;46574;52.818;6.516;2022-11-21T16:39:42;4.90;99.90
60723;DHT22;46574;52.818;6.516;2022-11-21T16:42:10;4.90;99.90
60723;DHT22;46574;52.818;6.516;2022-11-21T16:44:36;4.90;99.90
60723;DHT22;46574;52.818;6.516;2022-11-21T16:47:02;4.90;99.90
60723;DHT22;46574;52.818;6.516;2022-11-21T16:49:27;4.90;99.90
60723;DHT22;46574;52.818;6.516;2022-11-21T16:51:53;4.80;99.90
60723;DHT22;46574;52.818;6.516;2022-11-21T16:54:20;4.80;99.90
60723;DHT22;46574;52.818;6.516;2022-11-21T16:56:46;4.90;99.90
60723;DHT22;46574;52.818;6.516;2022-11-21T16:59:11;4.90;99.90
60723;DHT22;46574;52.818;6.516;2022-11-21T17:01:37;4.80;99.90
60723;DHT22;46574;52.818;6.516;2022-11-21T17:04:03;4.80;99.90
60723;DHT22;46574;52.818;6.516;2022-11-21T17:06:30;4.80;99.90
60723;DHT22;46574;52.818;6.516;2022-11-21T17:08:58;4.80;99.90
60723;DHT22;46574;52.818;6.516;2022-11-21T17:11:26;4.80;99.90
60723;DHT22;46574;52.818;6.516;2022-11-21T17:13:54;4.70;99.90
60723;DHT22;46574;52.818;6.516;2022-11-21T17:16:21;4.70;99.90
60723;DHT22;46574;52.818;6.516;2022-11-21T17:18:56;4.70;99.90
60723;DHT22;46574;52.818;6.516;2022-11-21T17:21:22;4.70;99.90
60723;DHT22;46574;52.818;6.516;2022-11-21T17:23:48;4.60;99.90
60723;DHT22;46574;52.818;6.516;2022-11-21T17:26:17;4.60;99.90
60723;DHT22;46574;52.818;6.516;2022-11-21T17:28:43;4.60;99.90
60723;DHT22;46574;52.818;6.516;2022-11-21T17:31:13;4.60;99.90
60723;DHT22;46574;52.818;6.516;2022-11-21T17:33:40;4.60;99.90
60723;DHT22;46574;52.818;6.516;2022-11-21T17:36:10;4.50;99.90
60723;DHT22;46574;52.818;6.516;2022-11-21T17:38:37;4.50;99.90
60723;DHT22;46574;52.818;6.516;2022-11-21T17:41:04;4.50;99.90
60723;DHT22;46574;52.818;6.516;2022-11-21T17:43:30;4.50;99.90
60723;DHT22;46574;52.818;6.516;2022-11-21T17:45:59;4.40;99.90
60723;DHT22;46574;52.818;6.516;2022-11-21T17:48:26;4.40;99.90
60723;DHT22;46574;52.818;6.516;2022-11-21T17:51:06;4.40;99.90
60723;DHT22;46574;52.818;6.516;2022-11-21T17:53:36;4.40;99.90
60723;DHT22;46574;52.818;6.516;2022-11-21T17:56:03;4.40;99.90
60723;DHT22;46574;52.818;6.516;2022-11-21T17:58:29;4.30;99.90
60723;DHT22;46574;52.818;6.516;2022-11-21T18:01:00;4.30;99.90
60723;DHT22;46574;52.818;6.516;2022-11-21T18:03:27;4.30;99.90
60723;DHT22;46574;52.818;6.516;2022-11-21T18:08:32;4.20;99.90